Time;durP1;ratioP1;P1;durP2;ratioP2;P2;SDS_P1;SDS_P2;PMS_P1;PMS_P2;Temp;Humidity;BMP_temperature;BMP_pressure;BME280_temperature;BME280_humidity;BME280_pressure;Samples;Min_cycle;Max_cycle;Signal;HPM_P1;HPM_P2
2023/12/08 00:01:11;;;;;;;;;;;;;;;-4.00;100.00;95292.91;10472045;28;2795;-67
2023/12/08 00:06:14;;;;;;;;;;;;;;;-4.04;100.00;95288.25;10463845;28;3166;-65
2023/12/08 00:11:16;;;;;;;;;;;;;;;-4.08;100.00;95274.69;10469322;28;2922;-66
2023/12/08 00:16:19;;;;;;;;;;;;;;;-4.08;100.00;95277.31;10465076;28;2906;-67
2023/12/08 00:21:23;;;;;;;;;;;;;;;-4.11;100.00;95264.59;10467693;28;2880;-66
2023/12/08 00:26:25;;;;;;;;;;;;;;;-3.97;100.00;95254.94;10460584;28;2927;-65
2023/12/08 00:31:28;;;;;;;;;;;;;;;-3.79;100.00;95255.22;10466397;28;2931;-65
2023/12/08 00:36:30;;;;;;;;;;;;;;;-3.74;100.00;95250.19;10472875;28;2914;-67
2023/12/08 00:41:33;;;;;;;;;;;;;;;-3.74;100.00;95244.13;10468545;28;2917;-66
2023/12/08 00:46:35;;;;;;;;;;;;;;;-3.80;100.00;95229.97;10462645;28;4633;-68
2023/12/08 00:51:37;;;;;;;;;;;;;;;-3.92;100.00;95211.34;10466802;28;2845;-67
2023/12/08 00:56:40;;;;;;;;;;;;;;;-4.05;100.00;95216.56;10469723;28;2936;-69
2023/12/08 01:01:42;;;;;;;;;;;;;;;-4.20;100.00;95208.84;10468298;28;2809;-71
2023/12/08 01:06:58;;;;;;;;;;;;;;;-4.16;100.00;95204.78;10350475;28;2860;-68
2023/12/08 01:12:01;;;;;;;;;;;;;;;-4.04;100.00;95202.41;10346773;28;2880;-67
2023/12/08 01:17:03;;;;;;;;;;;;;;;-4.05;100.00;95194.75;10350367;28;2884;-69
2023/12/08 01:22:05;;;;;;;;;;;;;;;-4.07;100.00;95192.31;10351090;28;2947;-67
2023/12/08 01:27:08;;;;;;;;;;;;;;;-4.02;100.00;95184.66;10349022;28;2977;-68
2023/12/08 01:32:11;;;;;;;;;;;;;;;-4.07;100.00;95184.44;10350422;28;3176;-65
2023/12/08 01:37:13;;;;;;;;;;;;;;;-4.04;100.00;95186.66;10436409;28;3078;-68
2023/12/08 01:42:15;;;;;;;;;;;;;;;-4.00;100.00;95181.84;10478635;28;2870;-67
2023/12/08 01:47:18;;;;;;;;;;;;;;;-4.02;100.00;95174.13;10474917;28;4805;-66
2023/12/08 01:52:20;;;;;;;;;;;;;;;-4.11;100.00;95176.16;10480990;28;3086;-66
2023/12/08 01:57:23;;;;;;;;;;;;;;;-4.09;100.00;95179.38;10477815;28;2808;-71
2023/12/08 02:02:25;;;;;;;;;;;;;;;-4.12;100.00;95163.22;10469622;28;2869;-69
2023/12/08 02:07:28;;;;;;;;;;;;;;;-4.06;100.00;95151.13;10472348;28;2899;-66
2023/12/08 02:12:31;;;;;;;;;;;;;;;-4.01;100.00;95164.44;10475909;28;2962;-68
2023/12/08 02:17:34;;;;;;;;;;;;;;;-3.85;100.00;95154.41;10474606;28;2825;-66
2023/12/08 02:22:37;;;;;;;;;;;;;;;-3.77;100.00;95149.97;10474065;28;2923;-67
2023/12/08 02:27:39;;;;;;;;;;;;;;;-3.83;100.00;95136.63;10477826;28;2876;-69
2023/12/08 02:32:42;;;;;;;;;;;;;;;-3.89;100.00;95107.72;10476497;28;2855;-68
2023/12/08 02:37:44;;;;;;;;;;;;;;;-3.90;100.00;95114.00;10476127;28;2878;-69
2023/12/08 02:42:47;;;;;;;;;;;;;;;-3.74;100.00;95115.44;10472562;28;2899;-73
2023/12/08 02:47:49;;;;;;;;;;;;;;;-4.02;100.00;95111.13;10469054;28;4706;-67
2023/12/08 02:52:52;;;;;;;;;;;;;;;-4.04;100.00;95102.66;10473567;28;2812;-68
2023/12/08 02:57:56;;;;;;;;;;;;;;;-3.93;100.00;95099.44;10467180;28;2866;-67
2023/12/08 03:02:59;;;;;;;;;;;;;;;-3.75;100.00;95106.75;10466992;28;2925;-66
2023/12/08 03:08:01;;;;;;;;;;;;;;;-3.41;100.00;95104.94;10471362;28;2885;-66
2023/12/08 03:13:04;;;;;;;;;;;;;;;-3.34;100.00;95093.41;10473075;28;3183;-67
2023/12/08 03:18:06;;;;;;;;;;;;;;;-3.17;100.00;95098.25;10465966;28;2829;-67
2023/12/08 03:23:09;;;;;;;;;;;;;;;-3.04;100.00;95098.22;10465726;28;2837;-67
2023/12/08 03:28:11;;;;;;;;;;;;;;;-2.95;100.00;95091.72;10462705;28;2951;-66
2023/12/08 03:33:14;;;;;;;;;;;;;;;-2.77;100.00;95110.28;10466937;28;3261;-67
2023/12/08 03:38:16;;;;;;;;;;;;;;;-2.80;100.00;95094.91;10473016;28;2839;-66
2023/12/08 03:43:19;;;;;;;;;;;;;;;-2.81;100.00;95092.47;10470384;28;4619;-66
2023/12/08 03:48:21;;;;;;;;;;;;;;;-2.93;100.00;95089.66;10466965;28;2874;-66
2023/12/08 03:53:24;;;;;;;;;;;;;;;-3.12;100.00;95086.06;10468988;28;2855;-65
2023/12/08 03:58:26;;;;;;;;;;;;;;;-3.31;100.00;95079.88;10479049;28;2891;-67
2023/12/08 04:03:29;;;;;;;;;;;;;;;-3.30;100.00;95076.22;10467797;28;2887;-66
2023/12/08 04:08:31;;;;;;;;;;;;;;;-3.32;100.00;95051.94;10471920;28;2868;-69
2023/12/08 04:13:34;;;;;;;;;;;;;;;-3.64;100.00;95055.41;10465123;28;2848;-68
2023/12/08 04:18:36;;;;;;;;;;;;;;;-3.62;100.00;95053.41;10464239;28;2811;-67
2023/12/08 04:23:39;;;;;;;;;;;;;;;-3.64;100.00;95047.53;10467450;28;2859;-67
2023/12/08 04:28:41;;;;;;;;;;;;;;;-3.67;100.00;95035.63;10459088;28;2840;-66
2023/12/08 04:33:44;;;;;;;;;;;;;;;-3.62;100.00;95016.63;10479896;28;2862;-67
2023/12/08 04:38:46;;;;;;;;;;;;;;;-3.77;100.00;94992.41;10476052;28;2847;-65
2023/12/08 04:43:49;;;;;;;;;;;;;;;-3.76;100.00;95007.13;10475952;28;4720;-68
2023/12/08 04:48:51;;;;;;;;;;;;;;;-3.38;100.00;95018.59;10477685;28;2941;-67
2023/12/08 04:53:54;;;;;;;;;;;;;;;-3.21;100.00;95010.28;10475294;28;2890;-68
2023/12/08 04:58:56;;;;;;;;;;;;;;;-3.21;100.00;95018.16;10476459;28;2817;-73
2023/12/08 05:03:59;;;;;;;;;;;;;;;-3.21;100.00;95010.28;10480153;28;2884;-66
2023/12/08 05:09:01;;;;;;;;;;;;;;;-3.05;100.00;95022.97;10473458;28;2890;-67
2023/12/08 05:14:04;;;;;;;;;;;;;;;-2.85;100.00;95042.13;10477002;28;2959;-66
2023/12/08 05:19:06;;;;;;;;;;;;;;;-2.55;100.00;95049.47;10476517;28;3148;-71
2023/12/08 05:24:09;;;;;;;;;;;;;;;-2.40;100.00;95063.19;10479556;28;2801;-67
2023/12/08 05:29:11;;;;;;;;;;;;;;;-2.30;100.00;95068.78;10465355;28;2825;-67
2023/12/08 05:34:14;;;;;;;;;;;;;;;-2.39;100.00;95072.69;10477138;28;2855;-69
2023/12/08 05:39:17;;;;;;;;;;;;;;;-2.30;100.00;95089.84;10477057;28;3362;-67
2023/12/08 05:44:19;;;;;;;;;;;;;;;-2.35;100.00;95087.06;10472138;28;4623;-66
2023/12/08 05:49:22;;;;;;;;;;;;;;;-2.36;100.00;95093.31;10484054;28;2811;-68
2023/12/08 05:54:25;;;;;;;;;;;;;;;-2.32;100.00;95083.19;10475406;28;3117;-68
2023/12/08 05:59:27;;;;;;;;;;;;;;;-2.13;100.00;95082.28;10471575;28;2856;-69
2023/12/08 06:04:29;;;;;;;;;;;;;;;-2.08;100.00;95084.28;10465492;28;2778;-66
2023/12/08 06:09:32;;;;;;;;;;;;;;;-2.01;100.00;95087.69;10468359;28;2851;-68
2023/12/08 06:14:34;;;;;;;;;;;;;;;-1.94;100.00;95109.50;10467901;28;2840;-68
2023/12/08 06:19:37;;;;;;;;;;;;;;;-1.81;100.00;95133.13;10473542;28;2806;-72
2023/12/08 06:24:39;;;;;;;;;;;;;;;-1.84;100.00;95140.66;10474790;28;2987;-71
2023/12/08 06:29:42;;;;;;;;;;;;;;;-1.95;100.00;95166.66;10464388;28;2854;-76
2023/12/08 06:34:44;;;;;;;;;;;;;;;-2.12;100.00;95177.88;10473122;28;2936;-68
2023/12/08 06:39:50;;;;;;;;;;;;;;;-2.30;100.00;95195.13;10474693;28;2863;-79
2023/12/08 06:44:52;;;;;;;;;;;;;;;-2.32;100.00;95185.84;10466309;28;4809;-69
2023/12/08 06:49:55;;;;;;;;;;;;;;;-2.54;100.00;95190.56;10473994;28;2904;-69
2023/12/08 06:54:57;;;;;;;;;;;;;;;-2.57;100.00;95193.59;10468161;28;2840;-67
2023/12/08 06:59:59;;;;;;;;;;;;;;;-2.43;100.00;95183.84;10467694;28;2923;-68
2023/12/08 07:05:03;;;;;;;;;;;;;;;-2.41;100.00;95151.06;10478928;28;3143;-66
2023/12/08 07:10:05;;;;;;;;;;;;;;;-2.40;100.00;95157.94;10468954;28;2851;-69
2023/12/08 07:15:08;;;;;;;;;;;;;;;-2.13;100.00;95178.88;10470468;28;3100;-67
2023/12/08 07:20:11;;;;;;;;;;;;;;;-1.88;100.00;95181.63;10478287;28;3028;-68
2023/12/08 07:25:14;;;;;;;;;;;;;;;-1.69;100.00;95176.25;10485964;28;2847;-68
2023/12/08 07:30:17;;;;;;;;;;;;;;;-1.54;100.00;95178.56;10472750;28;2878;-68
2023/12/08 07:35:20;;;;;;;;;;;;;;;-1.28;100.00;95182.84;10474613;28;2925;-66
2023/12/08 07:40:22;;;;;;;;;;;;;;;-1.03;100.00;95171.50;10469164;28;3130;-67
2023/12/08 07:45:26;;;;;;;;;;;;;;;-0.86;100.00;95164.66;10463765;28;4556;-69
2023/12/08 07:50:28;;;;;;;;;;;;;;;-0.68;100.00;95156.78;10470063;28;2856;-70
2023/12/08 07:55:30;;;;;;;;;;;;;;;-0.44;100.00;95159.59;10462806;28;3257;-69
2023/12/08 08:00:33;;;;;;;;;;;;;;;-0.20;100.00;95158.69;10469155;28;2892;-72
2023/12/08 08:05:35;;;;;;;;;;;;;;;0.11;100.00;95143.69;10474160;28;2812;-70
2023/12/08 08:10:38;;;;;;;;;;;;;;;0.10;100.00;95139.44;10463649;28;2841;-76
2023/12/08 08:15:41;;;;;;;;;;;;;;;0.46;100.00;95131.41;10462175;28;3092;-68
2023/12/08 08:20:43;;;;;;;;;;;;;;;0.35;100.00;95152.50;10462873;28;2851;-70
2023/12/08 08:25:46;;;;;;;;;;;;;;;0.65;100.00;95139.25;10463315;28;2938;-69
2023/12/08 08:30:48;;;;;;;;;;;;;;;0.53;100.00;95139.22;10464040;28;2903;-68
2023/12/08 08:35:51;;;;;;;;;;;;;;;0.56;100.00;95140.59;10469659;28;2853;-73
2023/12/08 08:40:53;;;;;;;;;;;;;;;0.48;100.00;95142.53;10470436;28;2851;-76
2023/12/08 08:45:56;;;;;;;;;;;;;;;0.51;100.00;95144.75;10460167;28;4672;-74
2023/12/08 08:50:58;;;;;;;;;;;;;;;0.61;100.00;95148.69;10466080;28;2892;-72
2023/12/08 08:56:01;;;;;;;;;;;;;;;0.76;100.00;95144.59;10462343;28;2871;-77
2023/12/08 09:01:04;;;;;;;;;;;;;;;0.65;100.00;95144.56;10470313;28;2916;-74
2023/12/08 09:06:07;;;;;;;;;;;;;;;0.82;100.00;95142.84;10469645;28;2826;-75
2023/12/08 09:11:09;;;;;;;;;;;;;;;0.79;100.00;95145.97;10471598;28;2871;-75
2023/12/08 09:16:12;;;;;;;;;;;;;;;1.07;100.00;95143.44;10465058;28;2928;-72
2023/12/08 09:21:14;;;;;;;;;;;;;;;0.84;100.00;95148.72;10476111;28;2893;-72
2023/12/08 09:26:17;;;;;;;;;;;;;;;0.68;100.00;95155.47;10473232;28;2905;-71
2023/12/08 09:31:20;;;;;;;;;;;;;;;0.62;100.00;95160.88;10462943;28;3148;-72
2023/12/08 09:36:22;;;;;;;;;;;;;;;0.77;100.00;95162.06;10469715;28;2975;-72
2023/12/08 09:41:25;;;;;;;;;;;;;;;0.83;100.00;95147.13;10462724;28;2878;-73
2023/12/08 09:46:27;;;;;;;;;;;;;;;0.80;100.00;95156.31;10474114;28;4694;-79
2023/12/08 09:51:30;;;;;;;;;;;;;;;0.91;100.00;95143.34;10469007;28;2804;-78
2023/12/08 09:56:32;;;;;;;;;;;;;;;1.03;100.00;95137.00;10466521;28;2799;-75
2023/12/08 10:01:35;;;;;;;;;;;;;;;1.03;100.00;95142.31;10469960;28;2819;-74
2023/12/08 10:06:37;;;;;;;;;;;;;;;1.20;100.00;95149.56;10468451;28;2861;-74
2023/12/08 10:11:40;;;;;;;;;;;;;;;1.39;100.00;95126.41;10469094;28;2866;-72
2023/12/08 10:16:43;;;;;;;;;;;;;;;1.31;100.00;95132.88;10464064;28;2863;-71
2023/12/08 10:21:46;;;;;;;;;;;;;;;1.29;100.00;95130.44;10475342;28;2909;-72
2023/12/08 10:26:48;;;;;;;;;;;;;;;1.19;100.00;95130.22;10470275;28;2856;-75
2023/12/08 10:31:50;;;;;;;;;;;;;;;1.29;100.00;95124.34;10482375;28;2791;-73
2023/12/08 10:36:53;;;;;;;;;;;;;;;1.13;100.00;95135.63;10460191;28;3089;-73
2023/12/08 10:41:56;;;;;;;;;;;;;;;1.31;100.00;95135.50;10467359;28;3410;-71
2023/12/08 10:46:59;;;;;;;;;;;;;;;1.03;100.00;95138.84;10472414;28;4472;-77
2023/12/08 10:52:01;;;;;;;;;;;;;;;1.06;100.00;95141.03;10470734;28;2865;-70
2023/12/08 10:57:03;;;;;;;;;;;;;;;0.90;100.00;95141.72;10481118;28;2889;-69
2023/12/08 11:02:06;;;;;;;;;;;;;;;1.15;100.00;95138.88;10467394;28;2898;-72
2023/12/08 11:07:08;;;;;;;;;;;;;;;1.07;100.00;95116.97;10469819;28;2879;-70
2023/12/08 11:12:11;;;;;;;;;;;;;;;0.81;100.00;95128.00;10471892;28;3094;-69
2023/12/08 11:17:14;;;;;;;;;;;;;;;0.76;100.00;95131.34;10465965;28;3022;-68
2023/12/08 11:22:17;;;;;;;;;;;;;;;1.17;100.00;95120.91;10463986;28;2968;-68
2023/12/08 11:27:19;;;;;;;;;;;;;;;1.50;100.00;95130.88;10474303;28;2880;-71
2023/12/08 11:32:22;;;;;;;;;;;;;;;1.76;100.00;95137.53;10465737;28;2856;-69
2023/12/08 11:37:25;;;;;;;;;;;;;;;1.89;100.00;95134.63;10461010;28;2930;-67
2023/12/08 11:42:27;;;;;;;;;;;;;;;1.94;100.00;95131.25;10468021;28;3128;-68
2023/12/08 11:47:30;;;;;;;;;;;;;;;2.02;100.00;95134.34;10468287;28;2816;-68
2023/12/08 11:52:33;;;;;;;;;;;;;;;2.21;100.00;95140.28;10473199;28;2826;-68
2023/12/08 11:57:36;;;;;;;;;;;;;;;2.64;100.00;95137.06;10468953;28;2902;-68
2023/12/08 12:02:39;;;;;;;;;;;;;;;2.95;100.00;95138.41;10463042;28;2891;-69
2023/12/08 12:07:42;;;;;;;;;;;;;;;2.92;100.00;95143.38;10461474;28;2828;-70
2023/12/08 12:12:44;;;;;;;;;;;;;;;3.36;100.00;95140.84;10471388;28;2851;-71
2023/12/08 12:17:47;;;;;;;;;;;;;;;3.43;100.00;95138.84;10472966;28;2991;-72
2023/12/08 12:22:49;;;;;;;;;;;;;;;3.33;100.00;95130.75;10461954;28;4729;-73
2023/12/08 12:27:52;;;;;;;;;;;;;;;3.44;100.00;95129.84;10468681;28;2897;-71
2023/12/08 12:32:56;;;;;;;;;;;;;;;3.68;100.00;95133.88;10470928;28;2908;-71
2023/12/08 12:37:59;;;;;;;;;;;;;;;3.80;100.00;95139.88;10470774;28;2890;-70
2023/12/08 12:43:02;;;;;;;;;;;;;;;3.93;100.00;95151.22;10472695;28;2917;-72
2023/12/08 12:48:05;;;;;;;;;;;;;;;3.92;100.00;95144.28;10462342;28;2835;-71
2023/12/08 12:53:08;;;;;;;;;;;;;;;3.90;100.00;95138.41;10476453;28;2857;-72
2023/12/08 12:58:10;;;;;;;;;;;;;;;3.88;100.00;95136.00;10472204;28;2854;-72
2023/12/08 13:03:13;;;;;;;;;;;;;;;3.99;100.00;95132.41;10473674;28;3314;-69
2023/12/08 13:08:16;;;;;;;;;;;;;;;4.02;100.00;95131.13;10477240;28;2934;-72
2023/12/08 13:13:19;;;;;;;;;;;;;;;3.99;100.00;95129.75;10478125;28;2938;-71
2023/12/08 13:18:22;;;;;;;;;;;;;;;3.78;100.00;95128.69;10476419;28;2975;-69
2023/12/08 13:23:24;;;;;;;;;;;;;;;3.88;100.00;95130.69;10463453;28;2819;-70
2023/12/08 13:28:27;;;;;;;;;;;;;;;3.72;100.00;95132.34;10475875;28;3061;-70
2023/12/08 13:33:30;;;;;;;;;;;;;;;3.91;100.00;95129.38;10474674;28;2843;-70
2023/12/08 13:38:32;;;;;;;;;;;;;;;3.75;100.00;95123.88;10480670;28;2845;-68
2023/12/08 13:43:35;;;;;;;;;;;;;;;3.73;100.00;95118.00;10475652;28;4659;-72
2023/12/08 13:48:37;;;;;;;;;;;;;;;3.99;100.00;95124.44;10467036;28;3283;-71
2023/12/08 13:53:40;;;;;;;;;;;;;;;3.99;100.00;95124.44;10469352;28;2894;-75
2023/12/08 13:58:43;;;;;;;;;;;;;;;3.94;100.00;95123.56;10471282;28;2927;-75
2023/12/08 14:03:46;;;;;;;;;;;;;;;3.94;100.00;95134.19;10463436;28;2852;-70
2023/12/08 14:08:51;;;;;;;;;;;;;;;3.90;100.00;95136.56;10466011;28;2958;-71
2023/12/08 14:13:54;;;;;;;;;;;;;;;3.91;100.00;95140.81;10472485;28;3049;-70
2023/12/08 14:18:56;;;;;;;;;;;;;;;3.83;100.00;95143.91;10473125;28;2932;-69
2023/12/08 14:23:59;;;;;;;;;;;;;;;3.57;100.00;95140.13;10468596;28;2935;-70
2023/12/08 14:29:02;;;;;;;;;;;;;;;3.58;100.00;95162.97;10471835;28;2935;-70
2023/12/08 14:34:04;;;;;;;;;;;;;;;3.34;100.00;95166.88;10469374;28;2813;-71
2023/12/08 14:39:08;;;;;;;;;;;;;;;3.13;100.00;95171.88;10477388;28;2944;-71
2023/12/08 14:44:11;;;;;;;;;;;;;;;3.03;100.00;95182.31;10470288;28;4623;-70
2023/12/08 14:49:13;;;;;;;;;;;;;;;2.96;100.00;95179.81;10473498;28;2841;-70
2023/12/08 14:54:16;;;;;;;;;;;;;;;2.94;100.00;95183.78;10473645;28;2973;-69
2023/12/08 14:59:27;;;;;;;;;;;;;;;2.81;100.00;95189.38;10465957;28;2917;-69
2023/12/08 15:04:30;;;;;;;;;;;;;;;2.72;100.00;95194.25;10473967;28;2863;-70
2023/12/08 15:09:32;;;;;;;;;;;;;;;2.69;100.00;95195.56;10473184;28;2927;-70
2023/12/08 15:14:35;;;;;;;;;;;;;;;2.70;100.00;95202.47;10470193;28;2977;-72
2023/12/08 15:19:37;;;;;;;;;;;;;;;2.71;100.00;95209.38;10474948;28;2904;-70
2023/12/08 15:24:40;;;;;;;;;;;;;;;2.65;100.00;95212.97;10470468;28;2991;-69
2023/12/08 15:29:42;;;;;;;;;;;;;;;2.53;100.00;95209.56;10476683;28;2855;-70
2023/12/08 15:34:45;;;;;;;;;;;;;;;2.55;100.00;95212.81;10474446;28;2876;-70
2023/12/08 15:39:47;;;;;;;;;;;;;;;2.55;100.00;95218.13;10471553;28;2899;-73
2023/12/08 15:44:50;;;;;;;;;;;;;;;2.52;100.00;95218.56;10472744;28;4760;-70
2023/12/08 15:49:52;;;;;;;;;;;;;;;2.44;100.00;95221.63;10472793;28;2820;-71
2023/12/08 15:54:55;;;;;;;;;;;;;;;2.43;100.00;95222.66;10469423;28;2823;-70
2023/12/08 15:59:57;;;;;;;;;;;;;;;2.34;100.00;95234.66;10478045;28;2777;-71
2023/12/08 16:05:00;;;;;;;;;;;;;;;2.32;100.00;95239.41;10479965;28;2835;-69
2023/12/08 16:10:03;;;;;;;;;;;;;;;2.16;100.00;95240.94;10471477;28;2903;-69
2023/12/08 16:15:05;;;;;;;;;;;;;;;2.16;100.00;95247.06;10473914;28;2835;-70
2023/12/08 16:20:09;;;;;;;;;;;;;;;2.19;100.00;95252.94;10473253;28;2910;-70
2023/12/08 16:25:11;;;;;;;;;;;;;;;2.22;100.00;95260.41;10465299;28;2903;-69
2023/12/08 16:30:14;;;;;;;;;;;;;;;2.23;100.00;95264.66;10475907;28;2832;-69
2023/12/08 16:35:17;;;;;;;;;;;;;;;2.13;100.00;95268.72;10479116;28;2884;-69
2023/12/08 16:40:20;;;;;;;;;;;;;;;2.12;100.00;95274.28;10477351;28;2834;-70
2023/12/08 16:45:22;;;;;;;;;;;;;;;2.10;100.00;95279.81;10477281;28;4635;-70
2023/12/08 16:50:24;;;;;;;;;;;;;;;2.09;100.00;95282.66;10475109;28;2878;-70
2023/12/08 16:55:27;;;;;;;;;;;;;;;2.08;100.00;95286.38;10479590;28;2944;-69
2023/12/08 17:00:29;;;;;;;;;;;;;;;2.00;100.00;95295.47;10474266;28;2951;-68
2023/12/08 17:05:32;;;;;;;;;;;;;;;2.03;100.00;95299.50;10478521;28;2940;-69
2023/12/08 17:10:34;;;;;;;;;;;;;;;2.04;100.00;95299.28;10508991;27;3016;-73
2023/12/08 17:15:37;;;;;;;;;;;;;;;2.01;100.00;95313.00;10472693;28;2876;-68
2023/12/08 17:20:39;;;;;;;;;;;;;;;1.97;100.00;95317.13;10471179;28;2968;-68
2023/12/08 17:25:42;;;;;;;;;;;;;;;1.99;100.00;95315.09;10477642;28;2822;-73
2023/12/08 17:30:45;;;;;;;;;;;;;;;1.96;100.00;95322.69;10474712;28;2844;-74
2023/12/08 17:35:48;;;;;;;;;;;;;;;1.99;100.00;95317.72;10477514;28;2919;-67
2023/12/08 17:40:50;;;;;;;;;;;;;;;1.97;100.00;95335.69;10477855;28;2894;-67
2023/12/08 17:45:53;;;;;;;;;;;;;;;2.07;100.00;95333.28;10481251;28;4678;-67
2023/12/08 17:50:56;;;;;;;;;;;;;;;2.08;100.00;95356.09;10470537;28;2889;-67
2023/12/08 17:55:59;;;;;;;;;;;;;;;2.09;100.00;95355.06;10471565;28;2841;-66
2023/12/08 18:01:02;;;;;;;;;;;;;;;2.09;100.00;95357.72;10480184;28;2801;-67
2023/12/08 18:06:04;;;;;;;;;;;;;;;2.16;100.00;95357.59;10484951;28;2872;-66
2023/12/08 18:11:08;;;;;;;;;;;;;;;2.12;100.00;95362.56;10474800;28;2786;-66
2023/12/08 18:16:10;;;;;;;;;;;;;;;2.23;100.00;95373.41;10483647;28;2863;-67
2023/12/08 18:21:13;;;;;;;;;;;;;;;2.27;100.00;95371.91;10479325;28;2796;-66
2023/12/08 18:26:15;;;;;;;;;;;;;;;2.30;100.00;95371.47;10477291;28;2872;-65
2023/12/08 18:31:18;;;;;;;;;;;;;;;2.36;100.00;95373.19;10478826;28;2895;-66
2023/12/08 18:36:21;;;;;;;;;;;;;;;2.37;100.00;95380.09;10474825;28;2908;-67
2023/12/08 18:41:23;;;;;;;;;;;;;;;2.38;100.00;95385.16;10473931;28;2973;-66
2023/12/08 18:46:26;;;;;;;;;;;;;;;2.38;100.00;95374.56;10477152;28;4756;-66
2023/12/08 18:51:28;;;;;;;;;;;;;;;2.39;100.00;95381.47;10470936;28;2819;-66
2023/12/08 18:56:31;;;;;;;;;;;;;;;2.40;100.00;95385.72;10469285;28;2851;-67
2023/12/08 19:01:34;;;;;;;;;;;;;;;2.45;100.00;95393.00;10475025;28;2820;-67
2023/12/08 19:06:36;;;;;;;;;;;;;;;2.51;100.00;95399.22;10475517;28;2836;-67
2023/12/08 19:11:39;;;;;;;;;;;;;;;2.46;100.00;95397.25;10469606;28;2956;-67
2023/12/08 19:16:41;;;;;;;;;;;;;;;2.35;100.00;95392.75;10469388;28;2776;-67
2023/12/08 19:21:44;;;;;;;;;;;;;;;2.43;100.00;95385.28;10476524;28;2873;-69
2023/12/08 19:26:46;;;;;;;;;;;;;;;2.32;100.00;95382.63;10479416;28;2920;-68
2023/12/08 19:31:49;;;;;;;;;;;;;;;2.30;100.00;95390.03;10477988;28;2890;-67
2023/12/08 19:36:51;;;;;;;;;;;;;;;2.31;100.00;95388.97;10474084;28;2858;-68
2023/12/08 19:41:54;;;;;;;;;;;;;;;2.36;100.00;95384.59;10469587;28;2906;-71
2023/12/08 19:46:56;;;;;;;;;;;;;;;2.35;100.00;95387.47;10476750;28;2922;-68
2023/12/08 19:51:59;;;;;;;;;;;;;;;2.33;100.00;95385.03;10474130;28;2926;-67
2023/12/08 19:57:01;;;;;;;;;;;;;;;2.40;100.00;95391.03;10460711;28;2869;-66
2023/12/08 20:02:04;;;;;;;;;;;;;;;2.41;100.00;95397.94;10469699;28;2820;-66
2023/12/08 20:07:06;;;;;;;;;;;;;;;2.47;100.00;95395.41;10469997;28;2819;-66
2023/12/08 20:12:09;;;;;;;;;;;;;;;2.51;100.00;95397.38;10475063;28;2789;-67
2023/12/08 20:17:11;;;;;;;;;;;;;;;2.54;100.00;95396.91;10478515;28;2859;-72
2023/12/08 20:22:24;;;;;;;;;;;;;;;2.49;100.00;95402.13;10467001;28;2805;-67
2023/12/08 20:27:26;;;;;;;;;;;;;;;2.51;100.00;95405.34;10472459;28;2862;-67
2023/12/08 20:32:29;;;;;;;;;;;;;;;2.50;100.00;95402.94;10473378;28;2925;-67
2023/12/08 20:37:32;;;;;;;;;;;;;;;2.47;100.00;95398.06;10472026;28;2880;-66
2023/12/08 20:42:34;;;;;;;;;;;;;;;2.44;100.00;95402.81;10476168;28;2829;-72
2023/12/08 20:47:37;;;;;;;;;;;;;;;2.48;100.00;95403.13;10474949;28;4710;-69
2023/12/08 20:52:41;;;;;;;;;;;;;;;2.48;100.00;95413.75;10474090;28;2796;-72
2023/12/08 20:57:44;;;;;;;;;;;;;;;2.46;100.00;95415.84;10465357;28;2866;-73
2023/12/08 21:02:47;;;;;;;;;;;;;;;2.46;100.00;95425.66;10474904;28;2789;-69
2023/12/08 21:07:49;;;;;;;;;;;;;;;2.51;100.00;95412.50;10478312;28;2824;-71
2023/12/08 21:12:51;;;;;;;;;;;;;;;2.56;100.00;95416.06;10478652;28;2808;-67
2023/12/08 21:17:55;;;;;;;;;;;;;;;2.55;100.00;95419.78;10480997;28;2877;-66
2023/12/08 21:22:58;;;;;;;;;;;;;;;2.55;100.00;95418.97;10489605;28;2796;-66
2023/12/08 21:28:00;;;;;;;;;;;;;;;2.55;100.00;95435.69;10486905;28;2847;-66
2023/12/08 21:33:03;;;;;;;;;;;;;;;2.62;100.00;95427.63;10477519;28;2879;-66
2023/12/08 21:38:05;;;;;;;;;;;;;;;2.59;100.00;95431.53;10484732;28;2835;-66
2023/12/08 21:43:08;;;;;;;;;;;;;;;2.62;100.00;95440.88;10481032;28;4846;-66
2023/12/08 21:48:11;;;;;;;;;;;;;;;2.56;100.00;95445.25;10486522;28;2820;-67
2023/12/08 21:53:13;;;;;;;;;;;;;;;2.63;100.00;95448.59;10480768;28;2824;-65
2023/12/08 21:58:16;;;;;;;;;;;;;;;2.59;100.00;95450.09;10495218;28;2828;-66
2023/12/08 22:03:20;;;;;;;;;;;;;;;2.55;100.00;95448.97;10476154;28;2780;-66
2023/12/08 22:08:22;;;;;;;;;;;;;;;2.62;100.00;95452.31;10515681;27;2892;-68
2023/12/08 22:13:25;;;;;;;;;;;;;;;2.64;100.00;95458.19;10486024;28;2799;-67
2023/12/08 22:18:28;;;;;;;;;;;;;;;2.64;100.00;95449.41;10483376;28;2923;-67
2023/12/08 22:23:30;;;;;;;;;;;;;;;2.70;100.00;95459.91;10477764;28;2843;-67
2023/12/08 22:28:33;;;;;;;;;;;;;;;2.72;100.00;95465.78;10478803;28;2850;-73
2023/12/08 22:33:39;;;;;;;;;;;;;;;2.74;100.00;95468.22;10478902;28;2820;-67
2023/12/08 22:38:42;;;;;;;;;;;;;;;2.76;100.00;95467.97;10483386;28;2786;-68
2023/12/08 22:43:44;;;;;;;;;;;;;;;2.67;100.00;95465.69;10481014;28;4780;-67
2023/12/08 22:48:46;;;;;;;;;;;;;;;2.72;100.00;95468.44;10475651;28;2805;-64
2023/12/08 22:53:49;;;;;;;;;;;;;;;2.75;100.00;95472.50;10485466;28;2838;-66
2023/12/08 22:58:52;;;;;;;;;;;;;;;2.74;100.00;95470.06;10479375;28;2966;-67
2023/12/08 23:03:54;;;;;;;;;;;;;;;2.75;100.00;95471.69;10469221;28;2829;-67
2023/12/08 23:08:57;;;;;;;;;;;;;;;2.83;100.00;95476.63;10469816;28;2858;-69
2023/12/08 23:13:59;;;;;;;;;;;;;;;2.83;100.00;95484.59;10475996;28;2878;-67
2023/12/08 23:19:02;;;;;;;;;;;;;;;2.77;100.00;95490.81;10468839;28;2966;-67
2023/12/08 23:24:04;;;;;;;;;;;;;;;2.81;100.00;95494.66;10474750;28;2860;-71
2023/12/08 23:29:07;;;;;;;;;;;;;;;2.86;100.00;95502.69;10480602;28;2817;-67
2023/12/08 23:34:10;;;;;;;;;;;;;;;2.84;100.00;95496.81;10480805;28;2792;-67
2023/12/08 23:39:12;;;;;;;;;;;;;;;2.89;100.00;95507.56;10480216;28;2632;-67
2023/12/08 23:44:16;;;;;;;;;;;;;;;2.89;100.00;95510.22;10477446;28;4737;-67
2023/12/08 23:49:18;;;;;;;;;;;;;;;2.89;100.00;95510.22;10478365;28;2686;-67
2023/12/08 23:54:21;;;;;;;;;;;;;;;2.92;100.00;95507.09;10476145;28;2593;-67
2023/12/08 23:59:23;;;;;;;;;;;;;;;2.87;100.00;95513.13;10482807;28;2613;-68
